Airfield :
LOGIN :

Register | Disclaimer

   EN    FR    IT 

 










Legend :    VFR   Marginal VFR   IFR   Intensive IFR   Very Intensive IFR
Visi :
Ceiling :
>= 8 km
>= 3000ft
5 to 8 km
1000 to 3000 ft
1500m to 5 km
500 to 1000 ft
800 to 1500m
200 to 500 ft
< 800m
< 200 ft
Symbols :   Thunderstorms  Fog  Heavy snow  Heavy precipitations  Wind > 20 kt
SIGMETs :     Misc.  Thunderstorms  Icing  Turbulence  Mountain Waves  Volcanic Ashes







- Airport Elevation : 13 ft
- IATA code : SNR
- Download approach charts


LFRZ - St-Nazaire

CURRENT METAR :
  • 181200Z AUTO 35003KT 310V040 0450 R25/0600N FG VV/// 07/07 Q1028 BECMG 7000 NSW BKN010

EXPIRED METARs :
  • 181130Z AUTO VRB03KT 0300 R25/0450U FG VV/// 06/06 Q1028 BECMG 9999 NSW BKN017
  • 181100Z AUTO VRB01KT 0250 R25/0375N FG VV/// 06/06 Q1028 BECMG 9999 NSW BKN017
  • 181030Z AUTO 02003KT 350V060 0250 R25/0325N FG VV/// 06/06 Q1028 BECMG 9999 NSW BKN017
  • 181000Z AUTO VRB02KT 0200 R25/M0200N FG VV/// 06/06 Q1028 BECMG 9999 NSW BKN017
  • 180930Z AUTO 00000KT 0300 R25/0350N FG VV/// 05/05 Q1028 BECMG 9999 NSW BKN017

TAF TAF LFRZ
Valid from the 18 at 12:00 until the 19 at 12:00 UTC


181100Z 1812/1912 VRB03KT 0300 FG VV///
BECMG 1812/1814 7000 NSW BKN010
BECMG 1822/1824 3000 BR
TEMPO 1902/1912 0500 FG VV///
No reported NOTAMs for that airfield.



MET'MAP, your aeronautical weather chart ! - Copyright ORBIFLY December 2007 - Disclaimer

ORBIFLY MET'MAP TEAM :

Programming & Development : Alexandra Zaïnal
Concept & Development : Baudouin d'Aumeries
Co-Development & Prog : Marc-Olivier Méhu
Technical & hardware support : Manuel Goepfert

Contact : metmap@orbifly.com




SOURCES & CREDITS :

   NOAA